Time;durP1;ratioP1;P1;durP2;ratioP2;P2;SDS_P1;SDS_P2;PMS_P1;PMS_P2;Temp;Humidity;BMP_temperature;BMP_pressure;BME280_temperature;BME280_humidity;BME280_pressure;Samples;Min_cycle;Max_cycle;Signal;HPM_P1;HPM_P2
2023/12/30 00:02:10;;;;;;;;;;;4.60;86.60;;;;;;4996297;28;87918;-46
2023/12/30 00:04:36;;;;;;;;;;;4.60;86.70;;;;;;4994490;28;87713;-45
2023/12/30 00:07:02;;;;;;;;;;;4.60;86.60;;;;;;4996887;28;88642;-46
2023/12/30 00:09:27;;;;;;;;;;;4.60;87.30;;;;;;4999314;28;87106;-46
2023/12/30 00:11:53;;;;;;;;;;;4.60;86.60;;;;;;4996586;28;87842;-48
2023/12/30 00:14:19;;;;;;;;;;;4.60;86.70;;;;;;4998520;28;88629;-48
2023/12/30 00:16:44;;;;;;;;;;;4.60;86.60;;;;;;4997376;28;88523;-46
2023/12/30 00:19:11;;;;;;;;;;;4.60;86.50;;;;;;4997437;28;86749;-46
2023/12/30 00:21:36;;;;;;;;;;;4.60;86.50;;;;;;5001338;28;87576;-46
2023/12/30 00:24:03;;;;;;;;;;;4.60;86.60;;;;;;4997089;28;86900;-46
2023/12/30 00:26:28;;;;;;;;;;;4.50;86.50;;;;;;4996061;28;89825;-46
2023/12/30 00:28:54;;;;;;;;;;;4.50;86.50;;;;;;4996686;28;87006;-48
2023/12/30 00:31:23;;;;;;;;;;;4.50;86.60;;;;;;4995259;28;87006;-46
2023/12/30 00:33:49;;;;;;;;;;;4.50;86.50;;;;;;4998227;28;87719;-47
2023/12/30 00:36:14;;;;;;;;;;;4.60;87.10;;;;;;4996482;28;87095;-47
2023/12/30 00:38:40;;;;;;;;;;;4.50;86.50;;;;;;4998106;28;86905;-46
2023/12/30 00:41:06;;;;;;;;;;;4.50;86.50;;;;;;4994709;28;87422;-46
2023/12/30 00:43:32;;;;;;;;;;;4.50;86.50;;;;;;5000498;28;86368;-46
2023/12/30 00:45:57;;;;;;;;;;;4.50;86.30;;;;;;4996151;28;88445;-47
2023/12/30 00:48:23;;;;;;;;;;;4.50;86.40;;;;;;4996953;28;87155;-46
2023/12/30 00:50:49;;;;;;;;;;;4.50;86.40;;;;;;4998262;28;87954;-47
2023/12/30 00:53:14;;;;;;;;;;;4.50;86.50;;;;;;4996499;28;87479;-48
2023/12/30 00:55:40;;;;;;;;;;;4.50;86.50;;;;;;4996871;28;86990;-46
2023/12/30 00:58:05;;;;;;;;;;;4.50;86.30;;;;;;4996755;28;86924;-46
2023/12/30 01:00:31;;;;;;;;;;;4.50;86.40;;;;;;4996459;28;87331;-45
2023/12/30 01:02:56;;;;;;;;;;;4.40;86.40;;;;;;4997276;28;87021;-46
2023/12/30 01:05:22;;;;;;;;;;;4.40;86.50;;;;;;4999419;28;87170;-46
2023/12/30 01:07:47;;;;;;;;;;;4.40;86.50;;;;;;4995563;28;86324;-46
2023/12/30 01:10:16;;;;;;;;;;;4.40;86.40;;;;;;4993234;28;87079;-46
2023/12/30 01:12:41;;;;;;;;;;;4.40;86.50;;;;;;4991616;28;87376;-47
2023/12/30 01:15:07;;;;;;;;;;;4.40;86.30;;;;;;4994086;28;87957;-47
2023/12/30 01:17:33;;;;;;;;;;;4.40;86.40;;;;;;5009174;28;90464;-45
2023/12/30 01:19:59;;;;;;;;;;;4.40;86.30;;;;;;5002390;28;88471;-48
2023/12/30 01:22:24;;;;;;;;;;;4.40;86.40;;;;;;5004642;28;87523;-45
2023/12/30 01:24:50;;;;;;;;;;;4.40;86.20;;;;;;5002966;28;87812;-46
2023/12/30 01:27:15;;;;;;;;;;;4.40;86.30;;;;;;5007539;28;87678;-45
2023/12/30 01:29:41;;;;;;;;;;;4.40;86.30;;;;;;5005006;28;87803;-46
2023/12/30 01:32:06;;;;;;;;;;;4.40;86.20;;;;;;5005887;28;86646;-46
2023/12/30 01:34:32;;;;;;;;;;;4.40;86.20;;;;;;5002572;28;88422;-47
2023/12/30 01:36:58;;;;;;;;;;;4.30;86.30;;;;;;4998609;28;87862;-46
2023/12/30 01:39:23;;;;;;;;;;;4.30;86.20;;;;;;5003465;28;89337;-45
2023/12/30 01:41:51;;;;;;;;;;;4.30;86.30;;;;;;5006296;28;87021;-46
2023/12/30 01:44:17;;;;;;;;;;;4.30;86.20;;;;;;5004666;28;87824;-46
2023/12/30 01:46:42;;;;;;;;;;;4.30;86.30;;;;;;5000327;28;87334;-46
2023/12/30 01:49:08;;;;;;;;;;;4.30;86.20;;;;;;5008282;28;86791;-48
2023/12/30 01:51:34;;;;;;;;;;;4.30;86.20;;;;;;5004267;28;87574;-45
2023/12/30 01:53:59;;;;;;;;;;;4.30;86.30;;;;;;5002958;28;86995;-46
2023/12/30 01:56:25;;;;;;;;;;;4.30;86.20;;;;;;5003234;28;88114;-46
2023/12/30 01:58:51;;;;;;;;;;;4.30;86.10;;;;;;5000417;28;88346;-46
2023/12/30 02:01:17;;;;;;;;;;;4.30;86.10;;;;;;5002694;28;87054;-46
2023/12/30 02:03:43;;;;;;;;;;;4.30;86.10;;;;;;4981369;28;89741;-46
2023/12/30 02:06:09;;;;;;;;;;;4.20;86.10;;;;;;5004651;28;90048;-46
2023/12/30 02:08:34;;;;;;;;;;;4.30;86.10;;;;;;5003846;28;87016;-47
2023/12/30 02:11:00;;;;;;;;;;;4.20;86.10;;;;;;5003662;28;88535;-46
2023/12/30 02:13:25;;;;;;;;;;;4.20;86.00;;;;;;5004729;28;86972;-49
2023/12/30 02:15:51;;;;;;;;;;;4.20;86.00;;;;;;5002543;28;86881;-48
2023/12/30 02:18:18;;;;;;;;;;;4.20;86.00;;;;;;5002209;28;87618;-47
2023/12/30 02:20:43;;;;;;;;;;;4.20;86.60;;;;;;5007643;28;86154;-47
2023/12/30 02:23:09;;;;;;;;;;;4.20;86.10;;;;;;5003466;28;86847;-47
2023/12/30 02:25:34;;;;;;;;;;;4.20;86.10;;;;;;4999848;28;88598;-47
2023/12/30 02:28:00;;;;;;;;;;;4.20;86.10;;;;;;4998626;28;87890;-46
2023/12/30 02:30:25;;;;;;;;;;;4.20;86.20;;;;;;5002104;28;86937;-46
2023/12/30 02:32:54;;;;;;;;;;;4.20;85.90;;;;;;4998878;28;86976;-46
2023/12/30 02:35:23;;;;;;;;;;;4.20;86.00;;;;;;5000214;28;88974;-47
2023/12/30 02:37:48;;;;;;;;;;;4.20;86.00;;;;;;4998791;28;88585;-46
2023/12/30 02:40:14;;;;;;;;;;;4.10;86.10;;;;;;5000132;28;87128;-48
2023/12/30 02:42:40;;;;;;;;;;;4.10;86.10;;;;;;4997142;28;86970;-46
2023/12/30 02:45:06;;;;;;;;;;;4.10;86.30;;;;;;5002759;28;87712;-47
2023/12/30 02:47:31;;;;;;;;;;;4.10;86.10;;;;;;5002301;28;86875;-47
2023/12/30 02:49:57;;;;;;;;;;;4.10;86.00;;;;;;5000971;28;87005;-46
2023/12/30 02:52:23;;;;;;;;;;;4.10;86.00;;;;;;5000354;28;88494;-47
2023/12/30 02:54:48;;;;;;;;;;;4.10;86.00;;;;;;4998732;28;88814;-48
2023/12/30 02:57:14;;;;;;;;;;;4.10;86.00;;;;;;4997854;28;87839;-46
2023/12/30 02:59:40;;;;;;;;;;;4.10;86.10;;;;;;4999215;28;86851;-46
2023/12/30 03:02:05;;;;;;;;;;;4.10;85.90;;;;;;4998167;28;88173;-46
2023/12/30 03:04:31;;;;;;;;;;;4.10;86.10;;;;;;4999473;28;87485;-46
2023/12/30 03:06:57;;;;;;;;;;;4.10;85.90;;;;;;5000467;28;87032;-45
2023/12/30 03:09:22;;;;;;;;;;;4.10;86.00;;;;;;4999175;28;86720;-46
2023/12/30 03:11:48;;;;;;;;;;;4.00;86.10;;;;;;4998091;28;87593;-48
2023/12/30 03:14:13;;;;;;;;;;;4.00;85.90;;;;;;5001304;28;87025;-47
2023/12/30 03:16:39;;;;;;;;;;;4.00;85.80;;;;;;4997054;28;89336;-47
2023/12/30 03:19:04;;;;;;;;;;;4.00;85.90;;;;;;4998188;28;87070;-48
2023/12/30 03:21:30;;;;;;;;;;;4.00;86.00;;;;;;5000252;28;88184;-46
2023/12/30 03:23:55;;;;;;;;;;;4.00;86.00;;;;;;5000810;28;88780;-49
2023/12/30 03:26:21;;;;;;;;;;;4.00;85.90;;;;;;4998326;28;87639;-46
2023/12/30 03:28:47;;;;;;;;;;;4.00;85.90;;;;;;5000292;28;86970;-47
2023/12/30 03:31:26;;;;;;;;;;;4.00;85.80;;;;;;4997253;28;88424;-48
2023/12/30 03:33:52;;;;;;;;;;;4.00;85.90;;;;;;4996623;28;86255;-46
2023/12/30 03:36:17;;;;;;;;;;;4.00;85.90;;;;;;5008523;28;87867;-46
2023/12/30 03:38:43;;;;;;;;;;;4.00;85.90;;;;;;4996296;28;87086;-46
2023/12/30 03:41:09;;;;;;;;;;;4.00;85.80;;;;;;4999046;28;87902;-47
2023/12/30 03:43:34;;;;;;;;;;;4.00;86.50;;;;;;4991668;28;88501;-47
2023/12/30 03:46:00;;;;;;;;;;;3.90;85.90;;;;;;5000155;28;87095;-48
2023/12/30 03:48:25;;;;;;;;;;;3.90;85.80;;;;;;4999166;28;87953;-46
2023/12/30 03:50:51;;;;;;;;;;;3.90;85.80;;;;;;4998475;28;87438;-46
2023/12/30 03:53:16;;;;;;;;;;;3.90;85.80;;;;;;4999713;28;87004;-47
2023/12/30 03:55:42;;;;;;;;;;;3.90;85.80;;;;;;4996200;28;87858;-47
2023/12/30 03:58:08;;;;;;;;;;;3.90;85.90;;;;;;5001132;28;86793;-46
2023/12/30 04:00:33;;;;;;;;;;;3.90;85.80;;;;;;4995701;28;87591;-46
2023/12/30 04:02:59;;;;;;;;;;;3.90;85.80;;;;;;4993519;28;86913;-47
2023/12/30 04:05:24;;;;;;;;;;;3.90;85.80;;;;;;4999618;28;87813;-46
2023/12/30 04:07:50;;;;;;;;;;;3.90;85.80;;;;;;4999632;28;87761;-45
2023/12/30 04:10:17;;;;;;;;;;;3.90;85.90;;;;;;4995448;28;88638;-47
2023/12/30 04:12:43;;;;;;;;;;;3.90;85.80;;;;;;4997728;28;88619;-46
2023/12/30 04:15:09;;;;;;;;;;;3.80;85.70;;;;;;5003224;28;87100;-47
2023/12/30 04:17:34;;;;;;;;;;;3.80;85.70;;;;;;4999901;28;87225;-46
2023/12/30 04:20:00;;;;;;;;;;;3.80;85.80;;;;;;4998732;28;87328;-46
2023/12/30 04:22:27;;;;;;;;;;;3.80;85.90;;;;;;4992817;28;86753;-46
2023/12/30 04:24:53;;;;;;;;;;;3.90;85.90;;;;;;4999055;28;87035;-47
2023/12/30 04:27:18;;;;;;;;;;;3.80;85.70;;;;;;4998749;28;86838;-46
2023/12/30 04:29:44;;;;;;;;;;;3.80;85.80;;;;;;4994908;28;88357;-48
2023/12/30 04:32:09;;;;;;;;;;;3.80;85.80;;;;;;4998656;28;87074;-46
2023/12/30 04:34:35;;;;;;;;;;;3.80;85.80;;;;;;4993551;28;87822;-47
2023/12/30 04:37:01;;;;;;;;;;;3.80;85.90;;;;;;4997458;28;88741;-47
2023/12/30 04:39:27;;;;;;;;;;;3.80;85.80;;;;;;4997968;28;87053;-47
2023/12/30 04:41:52;;;;;;;;;;;3.80;85.80;;;;;;4994545;28;87180;-46
2023/12/30 04:44:18;;;;;;;;;;;3.70;85.70;;;;;;4997514;28;87021;-45
2023/12/30 04:46:43;;;;;;;;;;;3.70;85.80;;;;;;4995435;28;87803;-47
2023/12/30 04:49:11;;;;;;;;;;;3.70;85.80;;;;;;4997740;28;87398;-46
2023/12/30 04:51:37;;;;;;;;;;;3.70;85.80;;;;;;4997801;28;87840;-47
2023/12/30 04:54:03;;;;;;;;;;;3.80;85.70;;;;;;4994743;28;87595;-47
2023/12/30 04:56:28;;;;;;;;;;;3.70;85.80;;;;;;5001111;28;88578;-47
2023/12/30 04:58:54;;;;;;;;;;;3.70;85.80;;;;;;4995528;28;87045;-48
2023/12/30 05:01:19;;;;;;;;;;;3.70;85.80;;;;;;4997582;28;86969;-46
2023/12/30 05:03:45;;;;;;;;;;;3.70;85.80;;;;;;4997941;28;87027;-47
2023/12/30 05:06:19;;;;;;;;;;;3.70;85.80;;;;;;4996537;28;87011;-46
2023/12/30 05:08:45;;;;;;;;;;;3.70;85.80;;;;;;4994260;28;88493;-48
2023/12/30 05:11:10;;;;;;;;;;;3.70;85.70;;;;;;4995412;28;86188;-46
2023/12/30 05:13:36;;;;;;;;;;;3.70;85.70;;;;;;4998288;28;87135;-46
2023/12/30 05:16:02;;;;;;;;;;;3.60;85.80;;;;;;4998323;28;87482;-46
2023/12/30 05:18:27;;;;;;;;;;;3.70;85.80;;;;;;4997183;28;87999;-48
2023/12/30 05:20:53;;;;;;;;;;;3.60;85.60;;;;;;4995490;28;87760;-46
2023/12/30 05:23:19;;;;;;;;;;;3.60;85.60;;;;;;5000689;28;86844;-47
2023/12/30 05:25:44;;;;;;;;;;;3.60;85.60;;;;;;4998135;28;87883;-46
2023/12/30 05:28:10;;;;;;;;;;;3.60;85.80;;;;;;4996232;28;87393;-46
2023/12/30 05:30:35;;;;;;;;;;;3.60;85.70;;;;;;4994494;28;87026;-46
2023/12/30 05:33:01;;;;;;;;;;;3.60;85.70;;;;;;4996049;28;87049;-46
2023/12/30 05:35:26;;;;;;;;;;;3.60;85.70;;;;;;4997973;28;86764;-46
2023/12/30 05:37:52;;;;;;;;;;;3.60;85.80;;;;;;4995330;28;88092;-46
2023/12/30 05:40:18;;;;;;;;;;;3.60;85.80;;;;;;4998049;28;86865;-47
2023/12/30 05:42:44;;;;;;;;;;;3.50;85.80;;;;;;4997105;28;88584;-48
2023/12/30 05:45:09;;;;;;;;;;;3.60;85.80;;;;;;5004397;28;86776;-48
2023/12/30 05:47:35;;;;;;;;;;;3.50;85.90;;;;;;4993805;28;88573;-46
2023/12/30 05:50:00;;;;;;;;;;;3.50;85.80;;;;;;4994501;28;87189;-46
2023/12/30 05:52:26;;;;;;;;;;;3.50;85.70;;;;;;5000309;28;87614;-46
2023/12/30 05:54:52;;;;;;;;;;;3.50;85.70;;;;;;4991648;28;87462;-47
2023/12/30 05:57:17;;;;;;;;;;;3.50;85.80;;;;;;4996371;28;86979;-47
2023/12/30 05:59:43;;;;;;;;;;;3.50;85.70;;;;;;4994666;28;87060;-46
2023/12/30 06:02:09;;;;;;;;;;;3.40;85.70;;;;;;5005833;28;87272;-47
2023/12/30 06:04:38;;;;;;;;;;;3.50;85.70;;;;;;4998109;28;87405;-48
2023/12/30 06:07:04;;;;;;;;;;;3.50;85.70;;;;;;5000475;28;87907;-46
2023/12/30 06:09:29;;;;;;;;;;;3.50;85.70;;;;;;4997792;28;86992;-46
2023/12/30 06:11:55;;;;;;;;;;;3.50;85.70;;;;;;4999285;28;87271;-48
2023/12/30 06:14:21;;;;;;;;;;;3.40;85.70;;;;;;4997227;28;87516;-47
2023/12/30 06:16:46;;;;;;;;;;;3.40;85.70;;;;;;4996346;28;87055;-47
2023/12/30 06:19:13;;;;;;;;;;;3.40;85.80;;;;;;4996737;28;86828;-45
2023/12/30 06:21:38;;;;;;;;;;;3.40;85.90;;;;;;4998144;27;88507;-46
2023/12/30 06:24:04;;;;;;;;;;;3.40;85.60;;;;;;4994543;28;87454;-47
2023/12/30 06:26:29;;;;;;;;;;;3.40;85.80;;;;;;5005491;28;86949;-46
2023/12/30 06:28:55;;;;;;;;;;;3.40;85.70;;;;;;4997344;28;86994;-47
2023/12/30 06:31:20;;;;;;;;;;;3.40;85.60;;;;;;5002533;28;88067;-47
2023/12/30 06:33:46;;;;;;;;;;;3.40;86.30;;;;;;4995765;28;86992;-47
2023/12/30 06:36:18;;;;;;;;;;;3.40;85.70;;;;;;4995907;28;86821;-46
2023/12/30 06:38:44;;;;;;;;;;;3.40;85.60;;;;;;4997894;28;86859;-47
2023/12/30 06:41:09;;;;;;;;;;;3.40;85.60;;;;;;4997315;28;87546;-46
2023/12/30 06:43:35;;;;;;;;;;;3.40;85.60;;;;;;5001556;28;87106;-46
2023/12/30 06:46:03;;;;;;;;;;;3.30;85.60;;;;;;4996881;28;86980;-46
2023/12/30 06:48:29;;;;;;;;;;;3.30;85.50;;;;;;5004490;28;86772;-47
2023/12/30 06:50:56;;;;;;;;;;;3.40;85.50;;;;;;4995490;28;87730;-47
2023/12/30 06:53:22;;;;;;;;;;;3.40;85.50;;;;;;5000545;28;88385;-46
2023/12/30 06:55:48;;;;;;;;;;;3.40;85.50;;;;;;4998781;28;88509;-47
2023/12/30 06:58:13;;;;;;;;;;;3.40;85.50;;;;;;4995251;28;87797;-46
2023/12/30 07:00:39;;;;;;;;;;;3.30;85.50;;;;;;4995829;28;88805;-47
2023/12/30 07:03:05;;;;;;;;;;;3.30;85.50;;;;;;4992412;28;87389;-49
2023/12/30 07:05:35;;;;;;;;;;;3.30;85.50;;;;;;4999361;28;87867;-48
2023/12/30 07:08:01;;;;;;;;;;;3.30;85.70;;;;;;4998699;28;88549;-47
2023/12/30 07:10:27;;;;;;;;;;;3.30;85.60;;;;;;4998186;28;88663;-46
2023/12/30 07:12:52;;;;;;;;;;;3.30;85.60;;;;;;4996221;28;86793;-47
2023/12/30 07:15:18;;;;;;;;;;;3.30;85.50;;;;;;5004203;28;87126;-46
2023/12/30 07:17:45;;;;;;;;;;;3.20;85.60;;;;;;4998426;28;87011;-46
2023/12/30 07:20:12;;;;;;;;;;;3.30;85.50;;;;;;4995232;28;89586;-46
2023/12/30 07:22:37;;;;;;;;;;;3.20;85.50;;;;;;4993915;28;87061;-47
2023/12/30 07:25:03;;;;;;;;;;;3.20;85.60;;;;;;5000981;28;87014;-46
2023/12/30 07:27:29;;;;;;;;;;;3.30;85.60;;;;;;5000418;28;88545;-48
2023/12/30 07:29:54;;;;;;;;;;;3.30;85.50;;;;;;4999442;28;86994;-46
2023/12/30 07:32:20;;;;;;;;;;;3.30;85.40;;;;;;5002129;28;87609;-46
2023/12/30 07:34:46;;;;;;;;;;;3.30;85.30;;;;;;5002480;28;87084;-47
2023/12/30 07:37:11;;;;;;;;;;;3.30;85.30;;;;;;4998859;28;86866;-47
2023/12/30 07:39:37;;;;;;;;;;;3.30;85.30;;;;;;4998348;28;87530;-47
2023/12/30 07:42:03;;;;;;;;;;;3.30;85.40;;;;;;4999781;28;87000;-48
2023/12/30 07:44:29;;;;;;;;;;;3.20;85.30;;;;;;5000075;28;88074;-46
2023/12/30 07:46:54;;;;;;;;;;;3.20;85.30;;;;;;4998883;28;88666;-46
2023/12/30 07:49:20;;;;;;;;;;;3.20;85.30;;;;;;4998402;28;87241;-45
2023/12/30 07:51:45;;;;;;;;;;;3.20;85.30;;;;;;5003071;28;86924;-46
2023/12/30 07:54:12;;;;;;;;;;;3.20;85.50;;;;;;5002210;28;88529;-47
2023/12/30 07:56:38;;;;;;;;;;;3.20;85.60;;;;;;4997338;28;87905;-47
2023/12/30 07:59:04;;;;;;;;;;;3.20;85.70;;;;;;4997095;28;87387;-48
2023/12/30 08:01:29;;;;;;;;;;;3.20;85.80;;;;;;5005697;28;86352;-46
2023/12/30 08:03:55;;;;;;;;;;;3.20;85.60;;;;;;5001801;28;86723;-47
2023/12/30 08:06:20;;;;;;;;;;;3.20;85.60;;;;;;4998922;28;87218;-48
2023/12/30 08:08:46;;;;;;;;;;;3.20;85.50;;;;;;4996475;28;87948;-50
2023/12/30 08:11:12;;;;;;;;;;;3.20;85.50;;;;;;5001342;28;88801;-46
2023/12/30 08:13:37;;;;;;;;;;;3.20;85.50;;;;;;4994526;28;88314;-47
2023/12/30 08:16:03;;;;;;;;;;;3.20;85.50;;;;;;5001881;28;87729;-46
2023/12/30 08:18:28;;;;;;;;;;;3.20;85.50;;;;;;4998157;28;88497;-47
2023/12/30 08:20:54;;;;;;;;;;;3.20;85.50;;;;;;5000387;28;87046;-47
2023/12/30 08:23:20;;;;;;;;;;;3.20;85.60;;;;;;5000124;28;87067;-48
2023/12/30 08:25:45;;;;;;;;;;;3.20;85.60;;;;;;4997799;28;87691;-46
2023/12/30 08:28:11;;;;;;;;;;;3.20;85.70;;;;;;4998562;28;86990;-47
2023/12/30 08:30:37;;;;;;;;;;;3.20;85.80;;;;;;5004223;28;89435;-47
2023/12/30 08:33:06;;;;;;;;;;;3.20;85.80;;;;;;4994107;28;89442;-46
2023/12/30 08:35:35;;;;;;;;;;;3.20;85.70;;;;;;4999565;28;87013;-47
2023/12/30 08:38:01;;;;;;;;;;;3.10;85.90;;;;;;4996793;28;87473;-47
2023/12/30 08:40:26;;;;;;;;;;;3.10;85.90;;;;;;4997050;28;87016;-48
2023/12/30 08:42:52;;;;;;;;;;;3.10;85.90;;;;;;4996959;28;87211;-47
2023/12/30 08:45:20;;;;;;;;;;;3.10;86.00;;;;;;4996198;28;87447;-47
2023/12/30 08:47:46;;;;;;;;;;;3.10;85.90;;;;;;5000733;28;87265;-47
2023/12/30 08:50:12;;;;;;;;;;;3.10;86.00;;;;;;4996947;28;88134;-47
2023/12/30 08:52:37;;;;;;;;;;;3.10;86.10;;;;;;5000901;28;87012;-46
2023/12/30 08:55:09;;;;;;;;;;;3.10;86.20;;;;;;4998978;28;86776;-46
2023/12/30 08:57:35;;;;;;;;;;;3.10;86.30;;;;;;5000604;28;87701;-47
2023/12/30 09:00:00;;;;;;;;;;;3.00;86.20;;;;;;4998911;28;89021;-47
2023/12/30 09:02:26;;;;;;;;;;;3.00;86.40;;;;;;4995902;28;86814;-49
2023/12/30 09:04:53;;;;;;;;;;;3.00;86.30;;;;;;4994700;28;87439;-47
2023/12/30 09:07:18;;;;;;;;;;;3.00;86.30;;;;;;4997697;28;87044;-46
2023/12/30 09:09:44;;;;;;;;;;;3.00;86.40;;;;;;4995864;28;87092;-47
2023/12/30 09:12:09;;;;;;;;;;;3.00;86.50;;;;;;5000713;28;87301;-48
2023/12/30 09:14:35;;;;;;;;;;;3.00;86.40;;;;;;4998638;28;86280;-47
2023/12/30 09:17:01;;;;;;;;;;;3.00;86.40;;;;;;4999081;28;86997;-48
2023/12/30 09:19:26;;;;;;;;;;;3.00;86.50;;;;;;4999454;28;87500;-46
2023/12/30 09:21:52;;;;;;;;;;;3.00;86.80;;;;;;4996416;28;87868;-46
2023/12/30 09:24:17;;;;;;;;;;;3.00;87.10;;;;;;4995180;28;87096;-46
2023/12/30 09:26:43;;;;;;;;;;;3.00;86.40;;;;;;4997294;28;86889;-47
2023/12/30 09:29:08;;;;;;;;;;;3.00;86.50;;;;;;4998875;28;86969;-47
2023/12/30 09:31:34;;;;;;;;;;;3.10;86.50;;;;;;4998377;28;90127;-47
2023/12/30 09:33:59;;;;;;;;;;;3.10;86.50;;;;;;4998469;28;87029;-48
2023/12/30 09:36:25;;;;;;;;;;;3.10;86.40;;;;;;4998333;28;86973;-47
2023/12/30 09:38:51;;;;;;;;;;;3.10;86.50;;;;;;4998090;28;86743;-46
2023/12/30 09:41:17;;;;;;;;;;;3.10;86.60;;;;;;5003393;28;86939;-47
2023/12/30 09:43:43;;;;;;;;;;;3.10;86.50;;;;;;5003886;28;87219;-47
2023/12/30 09:46:09;;;;;;;;;;;3.10;86.70;;;;;;5000877;28;88874;-46
2023/12/30 09:48:36;;;;;;;;;;;3.10;86.70;;;;;;5003600;28;88992;-45
2023/12/30 09:51:02;;;;;;;;;;;3.10;86.80;;;;;;4997079;28;88448;-46
2023/12/30 09:53:27;;;;;;;;;;;3.10;86.90;;;;;;4998669;28;86919;-46
2023/12/30 09:55:53;;;;;;;;;;;3.10;86.70;;;;;;4997587;28;87609;-46
2023/12/30 09:58:19;;;;;;;;;;;3.10;86.60;;;;;;5004425;28;87458;-46
2023/12/30 10:00:45;;;;;;;;;;;3.10;86.80;;;;;;4999298;28;86917;-46
2023/12/30 10:03:10;;;;;;;;;;;3.10;86.70;;;;;;4999485;28;87815;-46
2023/12/30 10:05:36;;;;;;;;;;;3.10;86.60;;;;;;5001895;28;87058;-47
2023/12/30 10:08:03;;;;;;;;;;;3.10;87.10;;;;;;4996351;28;86958;-46
2023/12/30 10:10:46;;;;;;;;;;;3.10;86.80;;;;;;4999822;28;89382;-47
2023/12/30 10:13:12;;;;;;;;;;;3.10;86.80;;;;;;5001083;28;86956;-48
2023/12/30 10:15:38;;;;;;;;;;;3.10;87.10;;;;;;4998350;28;86804;-49
2023/12/30 10:18:06;;;;;;;;;;;3.10;87.10;;;;;;4999105;28;87404;-46
2023/12/30 10:20:32;;;;;;;;;;;3.10;87.00;;;;;;4997077;28;86871;-47
2023/12/30 10:23:00;;;;;;;;;;;3.10;87.00;;;;;;4999341;28;87227;-46
2023/12/30 10:25:25;;;;;;;;;;;3.10;87.00;;;;;;4999230;28;86973;-46
2023/12/30 10:27:51;;;;;;;;;;;3.10;87.10;;;;;;5003154;28;86177;-46
2023/12/30 10:30:20;;;;;;;;;;;3.10;87.20;;;;;;4996448;28;87047;-47
2023/12/30 10:32:46;;;;;;;;;;;3.10;87.30;;;;;;4996332;28;87046;-48
2023/12/30 10:35:15;;;;;;;;;;;3.10;87.20;;;;;;4997684;28;87936;-48
2023/12/30 10:37:42;;;;;;;;;;;3.10;87.30;;;;;;4998303;28;87650;-46
2023/12/30 10:40:09;;;;;;;;;;;3.10;87.40;;;;;;4996815;28;87333;-47
2023/12/30 10:42:35;;;;;;;;;;;3.10;87.20;;;;;;5000216;28;87738;-46
2023/12/30 10:45:00;;;;;;;;;;;3.10;87.30;;;;;;5000456;28;87466;-46
2023/12/30 10:47:27;;;;;;;;;;;3.10;87.80;;;;;;5003201;28;87045;-46
2023/12/30 10:49:54;;;;;;;;;;;3.10;87.40;;;;;;4996672;28;87656;-46
2023/12/30 10:52:22;;;;;;;;;;;3.10;87.30;;;;;;5000196;28;86256;-46
2023/12/30 10:54:52;;;;;;;;;;;3.10;87.30;;;;;;4997195;28;86793;-46
2023/12/30 10:57:19;;;;;;;;;;;3.10;87.30;;;;;;5002334;28;88556;-45
2023/12/30 10:59:48;;;;;;;;;;;3.10;87.20;;;;;;5000744;28;87874;-46
2023/12/30 11:02:14;;;;;;;;;;;3.10;87.20;;;;;;5000957;28;87636;-46
2023/12/30 11:04:39;;;;;;;;;;;3.10;87.30;;;;;;5006642;28;87694;-45
2023/12/30 11:07:10;;;;;;;;;;;3.10;87.40;;;;;;4999912;28;86857;-47
2023/12/30 11:09:36;;;;;;;;;;;3.10;87.60;;;;;;4998756;28;88608;-46
2023/12/30 11:12:02;;;;;;;;;;;3.20;87.60;;;;;;5000744;28;86816;-47
2023/12/30 11:14:27;;;;;;;;;;;3.20;87.50;;;;;;5006319;28;87946;-48
2023/12/30 11:16:55;;;;;;;;;;;3.20;87.50;;;;;;5001999;28;86595;-46
2023/12/30 11:19:27;;;;;;;;;;;3.20;87.30;;;;;;4999356;28;87116;-47
2023/12/30 11:21:54;;;;;;;;;;;3.20;87.60;;;;;;4998910;28;88172;-46
2023/12/30 11:24:20;;;;;;;;;;;3.20;87.20;;;;;;4996599;28;89695;-46
2023/12/30 11:26:45;;;;;;;;;;;3.20;87.20;;;;;;4999751;28;88337;-46
2023/12/30 11:29:12;;;;;;;;;;;3.20;87.60;;;;;;5001330;28;87066;-47
2023/12/30 11:31:40;;;;;;;;;;;3.20;87.80;;;;;;4998253;28;87004;-47
2023/12/30 11:34:05;;;;;;;;;;;3.20;87.70;;;;;;5000802;28;87045;-46
2023/12/30 11:36:31;;;;;;;;;;;3.30;87.70;;;;;;4996858;28;88480;-47
2023/12/30 11:38:58;;;;;;;;;;;3.30;87.90;;;;;;4998668;28;86934;-46
2023/12/30 11:41:24;;;;;;;;;;;3.30;87.60;;;;;;5000582;28;86568;-46
2023/12/30 11:43:50;;;;;;;;;;;3.30;87.60;;;;;;5005955;28;88674;-47
2023/12/30 11:46:16;;;;;;;;;;;3.30;88.20;;;;;;4999275;28;86946;-46
2023/12/30 11:48:42;;;;;;;;;;;3.30;88.10;;;;;;4997361;28;87856;-48
2023/12/30 11:51:08;;;;;;;;;;;3.30;88.40;;;;;;4998245;28;88583;-48
2023/12/30 11:53:37;;;;;;;;;;;3.40;87.90;;;;;;4998781;28;86977;-50
2023/12/30 11:56:03;;;;;;;;;;;3.40;88.10;;;;;;4998745;28;88582;-47
2023/12/30 11:58:29;;;;;;;;;;;3.40;88.10;;;;;;4999527;28;86877;-47
2023/12/30 12:00:55;;;;;;;;;;;3.30;88.20;;;;;;4996068;28;86817;-46
2023/12/30 12:03:20;;;;;;;;;;;3.30;88.70;;;;;;4998275;28;88521;-50
2023/12/30 12:05:46;;;;;;;;;;;3.40;88.90;;;;;;5001578;28;86334;-47
2023/12/30 12:08:12;;;;;;;;;;;3.40;88.80;;;;;;4995682;28;86842;-47
2023/12/30 12:10:37;;;;;;;;;;;3.40;89.10;;;;;;4996503;28;86619;-49
2023/12/30 12:13:06;;;;;;;;;;;3.40;89.10;;;;;;5001888;28;87773;-48
2023/12/30 12:15:32;;;;;;;;;;;3.30;89.40;;;;;;4996943;28;87760;-47
2023/12/30 12:17:58;;;;;;;;;;;3.40;89.10;;;;;;4997738;28;87266;-47
2023/12/30 12:20:26;;;;;;;;;;;3.40;89.60;;;;;;5001531;28;87855;-46
2023/12/30 12:22:54;;;;;;;;;;;3.40;89.30;;;;;;4994956;28;87253;-46
2023/12/30 12:25:20;;;;;;;;;;;3.40;89.80;;;;;;5000486;28;86995;-46
2023/12/30 12:27:48;;;;;;;;;;;3.40;89.60;;;;;;4995227;28;88128;-47
2023/12/30 12:30:13;;;;;;;;;;;3.30;89.70;;;;;;4997034;28;87997;-47
2023/12/30 12:32:40;;;;;;;;;;;3.40;89.70;;;;;;5001590;28;87078;-47
2023/12/30 12:35:06;;;;;;;;;;;3.30;89.50;;;;;;4999505;28;87493;-45
2023/12/30 12:37:31;;;;;;;;;;;3.40;89.60;;;;;;4993880;28;88093;-46
2023/12/30 12:39:57;;;;;;;;;;;3.40;89.80;;;;;;4996646;28;88845;-46
2023/12/30 12:42:23;;;;;;;;;;;3.40;89.70;;;;;;4999570;28;87749;-46
2023/12/30 12:44:48;;;;;;;;;;;3.40;89.60;;;;;;4994990;28;87032;-47
2023/12/30 12:47:14;;;;;;;;;;;3.40;89.80;;;;;;4995662;28;87532;-46
2023/12/30 12:49:39;;;;;;;;;;;3.40;89.80;;;;;;5001430;28;88473;-47
2023/12/30 12:52:05;;;;;;;;;;;3.40;89.90;;;;;;4997345;28;87098;-47
2023/12/30 12:54:31;;;;;;;;;;;3.40;89.90;;;;;;4998263;28;87153;-47
2023/12/30 12:56:57;;;;;;;;;;;3.40;89.70;;;;;;4998573;28;87480;-47
2023/12/30 12:59:22;;;;;;;;;;;3.40;89.80;;;;;;4995316;28;87131;-46
2023/12/30 13:01:48;;;;;;;;;;;3.40;89.80;;;;;;4994178;28;88563;-47
2023/12/30 13:04:15;;;;;;;;;;;3.50;89.90;;;;;;4996005;28;87383;-46
2023/12/30 13:06:41;;;;;;;;;;;3.50;89.90;;;;;;4998485;28;87059;-47
2023/12/30 13:09:29;;;;;;;;;;;3.50;90.00;;;;;;4998487;28;87378;-46
2023/12/30 13:11:52;;;;;;;;;;;3.50;90.00;;;;;;4995581;28;87537;-48
2023/12/30 13:14:26;;;;;;;;;;;3.50;90.00;;;;;;5000462;28;87904;-48
2023/12/30 13:16:52;;;;;;;;;;;3.50;90.10;;;;;;5001489;28;88691;-48
2023/12/30 13:19:17;;;;;;;;;;;3.50;90.00;;;;;;4997726;28;87022;-48
2023/12/30 13:21:43;;;;;;;;;;;3.50;90.10;;;;;;4996920;28;87137;-48
2023/12/30 13:24:11;;;;;;;;;;;3.50;90.00;;;;;;4997061;28;86953;-48
2023/12/30 13:26:37;;;;;;;;;;;3.50;90.10;;;;;;4995626;28;88061;-47
2023/12/30 13:29:02;;;;;;;;;;;3.50;90.20;;;;;;4998105;28;87444;-47
2023/12/30 13:31:28;;;;;;;;;;;3.50;90.10;;;;;;5001689;28;87761;-47
2023/12/30 13:33:54;;;;;;;;;;;3.60;90.20;;;;;;4994183;28;87805;-47
2023/12/30 13:36:20;;;;;;;;;;;3.60;90.20;;;;;;4999503;28;87375;-48
2023/12/30 13:38:52;;;;;;;;;;;3.60;90.20;;;;;;4997180;28;87864;-47
2023/12/30 13:41:22;;;;;;;;;;;3.60;90.20;;;;;;4994370;28;88513;-46
2023/12/30 13:43:52;;;;;;;;;;;3.60;90.20;;;;;;4998094;28;86280;-47
2023/12/30 13:46:42;;;;;;;;;;;3.60;90.20;;;;;;4996080;28;87588;-47
2023/12/30 13:49:33;;;;;;;;;;;3.60;90.30;;;;;;4990618;28;88504;-48
2023/12/30 13:52:00;;;;;;;;;;;3.60;90.30;;;;;;4992109;28;88851;-47
2023/12/30 13:54:26;;;;;;;;;;;3.60;90.30;;;;;;5000063;28;89121;-48
2023/12/30 13:57:10;;;;;;;;;;;3.60;90.30;;;;;;4993812;28;87016;-47
2023/12/30 13:59:35;;;;;;;;;;;3.60;90.30;;;;;;4990406;28;86970;-48
2023/12/30 14:02:01;;;;;;;;;;;3.60;90.90;;;;;;5000281;28;87002;-60
2023/12/30 14:04:27;;;;;;;;;;;3.80;91.40;;;;;;4998120;28;87672;-44
2023/12/30 14:06:53;;;;;;;;;;;3.90;91.60;;;;;;4995728;28;88062;-48
2023/12/30 14:09:39;;;;;;;;;;;4.00;91.40;;;;;;4993046;28;87768;-46
2023/12/30 14:12:06;;;;;;;;;;;4.10;91.30;;;;;;4993727;28;86899;-42
2023/12/30 14:14:44;;;;;;;;;;;4.20;91.60;;;;;;4998888;28;87122;-56
2023/12/30 14:17:10;;;;;;;;;;;4.20;91.40;;;;;;4991725;28;89474;-52
2023/12/30 14:19:37;;;;;;;;;;;4.40;91.50;;;;;;4993586;28;87024;-46
2023/12/30 14:22:05;;;;;;;;;;;4.50;91.10;;;;;;4993426;28;88137;-52
2023/12/30 14:24:31;;;;;;;;;;;4.60;91.40;;;;;;5002058;28;88442;-48
2023/12/30 14:26:56;;;;;;;;;;;4.60;91.00;;;;;;4998602;28;87096;-47